Time;durP1;ratioP1;P1;durP2;ratioP2;P2;SDS_P1;SDS_P2;PMS_P1;PMS_P2;Temp;Humidity;BMP_temperature;BMP_pressure;BME280_temperature;BME280_humidity;BME280_pressure;Samples;Min_cycle;Max_cycle;Signal;HPM_P1;HPM_P2
2023/11/06 00:00:51;;;;;;;13.27;2.75;;;16.90;96.70;;;;;;4912452;29;20036;-79
2023/11/06 00:03:20;;;;;;;12.10;3.33;;;16.90;96.70;;;;;;4909564;29;20071;-79
2023/11/06 00:05:49;;;;;;;12.05;2.92;;;16.90;96.70;;;;;;4908591;29;20801;-78
2023/11/06 00:08:17;;;;;;;14.63;2.75;;;16.80;96.70;;;;;;4912420;29;20941;-80
2023/11/06 00:10:45;;;;;;;11.88;2.35;;;16.80;96.70;;;;;;4933244;29;20508;-80
2023/11/06 00:13:14;;;;;;;14.80;2.38;;;16.80;96.70;;;;;;4945652;29;20047;-79
2023/11/06 00:15:42;;;;;;;15.73;3.08;;;16.80;96.70;;;;;;4897250;29;20048;-79
2023/11/06 00:18:10;;;;;;;9.73;1.73;;;16.80;96.70;;;;;;4908738;29;20414;-80
2023/11/06 00:20:40;;;;;;;11.48;2.35;;;16.80;96.70;;;;;;4896565;29;20052;-80
2023/11/06 00:23:08;;;;;;;12.63;2.20;;;16.80;96.70;;;;;;4909963;29;20556;-79
2023/11/06 00:25:37;;;;;;;13.95;2.25;;;16.80;96.70;;;;;;4912068;29;20094;-79
2023/11/06 00:28:05;;;;;;;16.00;2.63;;;16.80;96.70;;;;;;4896467;29;20047;-79
2023/11/06 00:30:33;;;;;;;12.73;2.35;;;16.90;96.70;;;;;;4937411;29;20043;-80
2023/11/06 00:33:01;;;;;;;10.32;1.92;;;16.90;96.70;;;;;;4895968;29;20414;-79
2023/11/06 00:35:31;;;;;;;16.10;2.55;;;16.90;96.70;;;;;;4910593;29;20048;-80
2023/11/06 00:38:01;;;;;;;17.38;2.42;;;17.00;96.70;;;;;;4911910;29;20062;-79
2023/11/06 00:40:29;;;;;;;9.77;1.95;;;17.00;96.70;;;;;;4889881;29;20150;-80
2023/11/06 00:42:57;;;;;;;15.23;3.05;;;17.00;96.70;;;;;;4893279;29;20058;-79
2023/11/06 00:45:26;;;;;;;15.25;2.55;;;17.10;96.70;;;;;;4911325;29;20047;-79
2023/11/06 00:47:54;;;;;;;14.05;2.80;;;17.10;96.70;;;;;;4928778;29;20044;-80
2023/11/06 00:50:23;;;;;;;11.25;1.83;;;17.20;96.70;;;;;;4896175;29;20060;-80
2023/11/06 00:52:51;;;;;;;14.57;2.45;;;17.20;96.70;;;;;;4928854;29;20047;-79
2023/11/06 00:55:21;;;;;;;10.55;2.65;;;17.20;96.70;;;;;;4895787;29;20067;-79
2023/11/06 00:57:51;;;;;;;14.43;2.50;;;17.30;96.70;;;;;;4895737;29;20075;-79
2023/11/06 01:00:22;;;;;;;11.35;1.85;;;17.20;96.70;;;;;;4914357;29;20154;-79
2023/11/06 01:02:50;;;;;;;11.43;2.28;;;17.20;96.70;;;;;;4905124;29;20059;-80
2023/11/06 01:05:18;;;;;;;11.93;2.38;;;17.30;96.70;;;;;;4924994;29;20115;-79
2023/11/06 01:07:47;;;;;;;17.27;2.20;;;17.30;96.70;;;;;;4927181;29;20543;-79
2023/11/06 01:10:19;;;;;;;11.05;2.22;;;17.40;96.70;;;;;;4908221;29;20123;-80
2023/11/06 01:12:48;;;;;;;9.00;2.33;;;17.30;96.70;;;;;;4895779;29;20043;-79
2023/11/06 01:15:17;;;;;;;18.90;2.80;;;17.30;96.70;;;;;;4894772;29;21233;-79
2023/11/06 01:17:45;;;;;;;9.25;2.20;;;17.30;96.70;;;;;;4895518;29;20073;-80
2023/11/06 01:20:13;;;;;;;9.60;1.70;;;17.30;96.70;;;;;;4913444;29;20048;-80
2023/11/06 01:22:41;;;;;;;10.57;1.98;;;17.30;96.70;;;;;;4910674;29;20099;-80
2023/11/06 01:25:10;;;;;;;8.73;1.77;;;17.30;96.70;;;;;;4894432;29;20403;-80
2023/11/06 01:27:38;;;;;;;11.10;1.60;;;17.20;96.70;;;;;;4893927;29;20055;-80
2023/11/06 01:30:11;;;;;;;11.75;2.13;;;17.20;96.70;;;;;;4910957;29;20106;-79
2023/11/06 01:32:39;;;;;;;9.55;1.88;;;17.20;96.70;;;;;;4911361;29;20054;-80
2023/11/06 01:35:08;;;;;;;11.63;2.25;;;17.20;96.70;;;;;;4909598;29;20573;-78
2023/11/06 01:37:36;;;;;;;11.55;3.00;;;17.20;96.70;;;;;;4918257;29;20161;-79
2023/11/06 01:40:07;;;;;;;10.63;2.08;;;17.20;96.70;;;;;;4902865;29;20087;-79
2023/11/06 01:42:35;;;;;;;12.55;2.25;;;17.20;96.70;;;;;;4910474;29;20039;-79
2023/11/06 01:45:07;;;;;;;11.85;2.65;;;17.20;96.70;;;;;;4928730;29;20367;-80
2023/11/06 01:47:36;;;;;;;14.85;2.33;;;17.30;96.70;;;;;;4895124;29;20052;-78
2023/11/06 01:50:05;;;;;;;13.02;1.92;;;17.30;96.70;;;;;;4907383;29;20052;-79
2023/11/06 01:52:34;;;;;;;11.90;1.90;;;17.30;96.70;;;;;;4913225;29;20331;-78
2023/11/06 01:55:02;;;;;;;10.10;2.60;;;17.40;96.70;;;;;;4910563;29;20047;-79
2023/11/06 01:57:31;;;;;;;11.45;1.65;;;17.40;96.70;;;;;;4916651;29;20139;-79
2023/11/06 01:59:59;;;;;;;11.93;2.30;;;17.40;96.70;;;;;;4911475;29;20071;-78
2023/11/06 02:02:31;;;;;;;13.27;1.92;;;17.40;96.70;;;;;;4924948;29;20051;-78
2023/11/06 02:04:59;;;;;;;12.77;2.20;;;17.40;96.70;;;;;;4927353;29;20126;-80
2023/11/06 02:07:28;;;;;;;12.50;2.08;;;17.40;96.70;;;;;;4894185;29;20458;-79
2023/11/06 02:09:58;;;;;;;11.23;2.58;;;17.40;96.70;;;;;;4926896;29;20297;-78
2023/11/06 02:12:26;;;;;;;12.20;2.05;;;17.30;96.70;;;;;;4909677;29;20046;-80
2023/11/06 02:14:55;;;;;;;8.65;1.98;;;17.30;96.70;;;;;;4909864;29;20052;-79
2023/11/06 02:17:25;;;;;;;13.30;2.10;;;17.30;96.70;;;;;;4909948;29;20107;-80
2023/11/06 02:19:55;;;;;;;13.73;2.35;;;17.30;96.70;;;;;;4910046;29;20059;-80
2023/11/06 02:22:23;;;;;;;11.27;2.10;;;17.30;96.70;;;;;;4908940;29;20466;-79
2023/11/06 02:24:52;;;;;;;11.98;2.40;;;17.30;96.70;;;;;;4909865;29;20051;-80
2023/11/06 02:27:20;;;;;;;12.57;1.88;;;17.20;96.70;;;;;;4940758;29;20047;-80
2023/11/06 02:29:49;;;;;;;10.30;2.10;;;17.20;96.70;;;;;;4915519;29;20060;-79
2023/11/06 02:32:17;;;;;;;9.05;2.00;;;17.20;96.70;;;;;;4912273;29;20095;-80
2023/11/06 02:34:46;;;;;;;13.48;2.30;;;17.20;96.70;;;;;;4918382;29;20063;-79
2023/11/06 02:37:14;;;;;;;11.57;1.95;;;17.10;96.70;;;;;;4927989;29;20660;-80
2023/11/06 02:39:42;;;;;;;14.70;2.30;;;17.10;96.70;;;;;;4919758;29;20078;-79
2023/11/06 02:42:11;;;;;;;9.80;2.10;;;17.10;96.70;;;;;;4907664;29;20044;-79
2023/11/06 02:44:41;;;;;;;10.63;2.17;;;17.10;96.70;;;;;;4935321;29;20510;-80
2023/11/06 02:47:09;;;;;;;11.85;2.28;;;17.10;96.70;;;;;;4926947;29;20047;-79
2023/11/06 02:49:37;;;;;;;11.57;2.67;;;17.00;96.70;;;;;;4909762;29;20057;-79
2023/11/06 02:52:05;;;;;;;11.05;1.90;;;17.00;96.70;;;;;;4894131;29;20103;-79
2023/11/06 02:54:33;;;;;;;13.13;1.77;;;17.00;96.70;;;;;;4909435;29;20526;-79
2023/11/06 02:57:03;;;;;;;12.02;2.22;;;17.00;96.70;;;;;;4926088;29;20063;-79
2023/11/06 02:59:33;;;;;;;10.80;2.13;;;17.00;96.70;;;;;;4893265;29;20530;-79
2023/11/06 03:02:32;;;;;;;12.55;2.13;;;17.10;96.70;;;;;;4909500;29;20062;-80
2023/11/06 03:05:06;;;;;;;8.52;1.70;;;17.20;96.70;;;;;;4908884;29;20130;-79
2023/11/06 03:07:34;;;;;;;7.88;1.83;;;17.20;96.70;;;;;;4934143;29;20043;-80
2023/11/06 03:10:03;;;;;;;8.10;2.00;;;17.30;96.70;;;;;;4909636;29;20488;-79
2023/11/06 03:12:33;;;;;;;10.43;2.20;;;17.20;96.70;;;;;;4909862;29;20077;-79
2023/11/06 03:15:03;;;;;;;13.57;2.72;;;17.20;96.70;;;;;;4909073;29;20054;-80
2023/11/06 03:17:31;;;;;;;12.63;1.65;;;17.20;96.70;;;;;;4893869;29;20506;-80
2023/11/06 03:20:00;;;;;;;13.90;2.85;;;17.20;96.70;;;;;;4908650;29;20056;-80
2023/11/06 03:22:28;;;;;;;8.48;1.85;;;17.20;96.70;;;;;;4922517;29;20541;-80
2023/11/06 03:24:56;;;;;;;12.25;2.50;;;17.10;96.70;;;;;;4925983;29;20043;-80
2023/11/06 03:27:25;;;;;;;12.80;1.98;;;17.10;96.70;;;;;;4915287;29;20058;-80
2023/11/06 03:29:53;;;;;;;9.57;1.85;;;17.10;96.70;;;;;;4896904;29;20050;-78
2023/11/06 03:32:22;;;;;;;13.38;2.30;;;17.10;96.70;;;;;;4916842;28;20083;-79
2023/11/06 03:34:50;;;;;;;10.20;2.13;;;17.10;96.70;;;;;;4928476;29;20586;-79
2023/11/06 03:37:18;;;;;;;7.65;1.65;;;17.20;96.70;;;;;;4912538;29;20061;-80
2023/11/06 03:39:46;;;;;;;12.20;2.72;;;17.20;96.70;;;;;;4918012;29;20090;-79
2023/11/06 03:42:15;;;;;;;14.13;2.85;;;17.20;96.70;;;;;;4940181;29;20051;-80
2023/11/06 03:44:42;;;;;;;14.50;2.92;;;17.20;96.70;;;;;;4898439;29;20039;-80
2023/11/06 03:47:10;;;;;;;15.30;2.08;;;17.20;96.70;;;;;;4912398;29;20406;-79
2023/11/06 03:49:40;;;;;;;10.07;2.17;;;17.20;96.70;;;;;;4921176;29;20048;-79
2023/11/06 03:52:11;;;;;;;9.57;2.35;;;17.20;96.70;;;;;;4912746;29;20067;-79
2023/11/06 03:54:40;;;;;;;15.95;2.55;;;17.20;96.70;;;;;;4894502;29;20103;-79
2023/11/06 03:57:08;;;;;;;11.70;2.17;;;17.30;96.70;;;;;;4929649;29;20051;-79
2023/11/06 03:59:36;;;;;;;14.43;2.40;;;17.20;96.70;;;;;;4931410;29;20048;-78
2023/11/06 04:02:04;;;;;;;10.93;2.35;;;17.20;96.70;;;;;;4902882;29;20043;-80
2023/11/06 04:04:33;;;;;;;13.32;2.05;;;17.10;96.70;;;;;;4921431;29;20047;-80
2023/11/06 04:07:03;;;;;;;14.00;2.92;;;17.00;96.70;;;;;;4905058;29;20079;-79
2023/11/06 04:09:32;;;;;;;12.27;2.20;;;17.00;96.70;;;;;;4930128;29;20122;-79
2023/11/06 04:12:02;;;;;;;10.82;2.47;;;16.90;96.70;;;;;;4936608;29;20054;-79
2023/11/06 04:14:30;;;;;;;12.27;2.40;;;16.90;96.70;;;;;;4938685;29;20144;-79
2023/11/06 04:16:58;;;;;;;12.82;2.15;;;16.90;96.70;;;;;;4923228;29;20768;-78
2023/11/06 04:19:26;;;;;;;15.48;1.98;;;17.00;96.70;;;;;;4912747;29;20044;-78
2023/11/06 04:21:55;;;;;;;10.20;1.95;;;17.20;96.70;;;;;;4902108;29;20039;-79
2023/11/06 04:24:24;;;;;;;16.75;2.50;;;17.20;96.70;;;;;;4929938;29;20499;-79
2023/11/06 04:26:52;;;;;;;10.95;1.83;;;17.20;96.70;;;;;;4912016;29;20043;-79
2023/11/06 04:29:20;;;;;;;14.88;2.58;;;17.20;96.70;;;;;;4927335;29;20067;-79
2023/11/06 04:31:48;;;;;;;15.43;2.60;;;17.30;96.70;;;;;;4916647;29;20047;-80
2023/11/06 04:34:16;;;;;;;10.15;1.98;;;17.30;96.70;;;;;;4930528;29;20052;-78
2023/11/06 04:36:44;;;;;;;14.13;2.63;;;17.30;96.70;;;;;;4911117;29;20571;-78
2023/11/06 04:39:12;;;;;;;16.92;2.60;;;17.30;96.70;;;;;;4913480;29;20103;-78
2023/11/06 04:41:42;;;;;;;10.85;2.35;;;17.30;96.70;;;;;;4908762;29;20046;-77
2023/11/06 04:44:11;;;;;;;10.98;1.92;;;17.30;96.70;;;;;;4911447;29;20055;-78
2023/11/06 04:46:38;;;;;;;10.48;2.10;;;17.30;96.70;;;;;;4910623;29;20151;-80
2023/11/06 04:49:06;;;;;;;14.07;2.10;;;17.40;96.70;;;;;;4896278;29;20087;-79
2023/11/06 04:51:34;;;;;;;10.07;3.03;;;17.40;96.70;;;;;;4938101;29;20058;-79
2023/11/06 04:54:03;;;;;;;14.02;2.60;;;17.40;96.70;;;;;;4909461;29;20165;-78
2023/11/06 04:56:31;;;;;;;11.75;2.58;;;17.30;96.70;;;;;;4911618;29;20159;-79
2023/11/06 04:59:01;;;;;;;13.43;2.80;;;17.30;96.70;;;;;;4929951;29;20084;-78
2023/11/06 05:01:29;;;;;;;14.02;2.97;;;17.20;96.70;;;;;;4917405;29;20056;-78
2023/11/06 05:03:56;;;;;;;13.90;2.17;;;17.20;96.70;;;;;;4911334;29;20054;-79
2023/11/06 05:06:26;;;;;;;12.13;2.60;;;17.10;96.70;;;;;;4910895;29;20062;-78
2023/11/06 05:08:54;;;;;;;16.40;2.47;;;17.10;96.70;;;;;;4896131;29;20067;-80
2023/11/06 05:11:22;;;;;;;10.48;2.17;;;17.10;96.70;;;;;;4898878;29;20360;-78
2023/11/06 05:13:51;;;;;;;17.38;2.60;;;17.10;96.70;;;;;;4910942;29;20051;-79
2023/11/06 05:16:21;;;;;;;10.32;2.30;;;17.00;96.70;;;;;;4918343;29;20051;-78
2023/11/06 05:18:48;;;;;;;12.65;2.60;;;17.00;96.70;;;;;;4937520;29;20043;-78
2023/11/06 05:21:22;;;;;;;17.55;2.50;;;16.90;96.70;;;;;;4894845;29;20047;-78
2023/11/06 05:23:52;;;;;;;12.93;2.20;;;16.90;96.70;;;;;;4907948;29;20052;-78
2023/11/06 05:26:23;;;;;;;16.05;2.55;;;16.90;96.70;;;;;;4910834;29;20107;-78
2023/11/06 05:28:52;;;;;;;9.43;1.75;;;16.90;96.70;;;;;;4927655;29;20039;-78
2023/11/06 05:31:22;;;;;;;13.02;2.20;;;16.90;96.70;;;;;;4894190;29;20060;-78
2023/11/06 05:33:53;;;;;;;15.00;2.75;;;16.90;96.70;;;;;;4927173;29;20051;-78
2023/11/06 05:36:21;;;;;;;13.57;1.90;;;16.90;96.70;;;;;;4910660;29;20063;-79
2023/11/06 05:38:49;;;;;;;13.65;2.78;;;17.00;96.70;;;;;;4894637;29;20040;-79
2023/11/06 05:41:17;;;;;;;10.38;1.98;;;17.00;96.70;;;;;;4904350;29;20178;-78
2023/11/06 05:43:45;;;;;;;12.43;2.58;;;17.10;96.70;;;;;;4930795;29;20593;-78
2023/11/06 05:46:12;;;;;;;13.02;2.38;;;17.10;96.70;;;;;;4926955;29;20563;-78
2023/11/06 05:48:42;;;;;;;12.30;2.53;;;17.00;96.70;;;;;;4926064;29;20051;-79
2023/11/06 05:51:10;;;;;;;12.38;2.03;;;17.00;96.70;;;;;;4910407;29;20078;-78
2023/11/06 05:53:37;;;;;;;12.48;1.98;;;17.00;96.70;;;;;;4894554;29;20040;-79
2023/11/06 05:56:06;;;;;;;13.27;2.53;;;17.10;96.70;;;;;;4910135;29;20059;-78
2023/11/06 05:58:34;;;;;;;15.68;2.30;;;17.10;96.70;;;;;;4927327;29;20506;-80
2023/11/06 06:01:04;;;;;;;14.82;2.65;;;17.10;96.70;;;;;;4926943;29;20127;-78
2023/11/06 06:03:32;;;;;;;13.25;2.78;;;17.20;96.70;;;;;;4910318;29;20055;-79
2023/11/06 06:06:02;;;;;;;13.10;2.35;;;17.20;96.70;;;;;;4909968;29;20047;-78
2023/11/06 06:08:30;;;;;;;13.25;2.47;;;17.20;96.70;;;;;;4927445;29;20454;-79
2023/11/06 06:10:58;;;;;;;14.32;2.10;;;17.20;96.70;;;;;;4927152;29;20040;-79
2023/11/06 06:13:26;;;;;;;11.07;1.95;;;17.20;96.70;;;;;;4909001;29;20055;-78
2023/11/06 06:15:55;;;;;;;16.52;2.28;;;17.20;96.70;;;;;;4902483;29;20043;-78
2023/11/06 06:18:23;;;;;;;11.57;2.00;;;17.10;96.70;;;;;;4909973;29;20043;-79
2023/11/06 06:20:51;;;;;;;11.75;1.75;;;17.20;96.70;;;;;;4909983;29;20074;-79
2023/11/06 06:23:20;;;;;;;15.57;2.10;;;17.20;96.70;;;;;;4909724;29;20094;-80
2023/11/06 06:25:48;;;;;;;11.07;2.50;;;17.20;96.70;;;;;;4909712;29;20048;-78
2023/11/06 06:28:16;;;;;;;6.18;2.03;;;17.20;96.70;;;;;;4927149;29;20040;-79
2023/11/06 06:30:44;;;;;;;19.92;3.00;;;17.20;96.70;;;;;;4893947;29;20142;-78
2023/11/06 06:33:12;;;;;;;8.43;1.63;;;17.10;96.70;;;;;;4909235;29;20055;-78
2023/11/06 06:35:40;;;;;;;13.95;2.55;;;17.20;96.70;;;;;;4894010;29;20150;-78
2023/11/06 06:38:08;;;;;;;12.60;2.45;;;17.20;96.70;;;;;;4926707;29;20044;-79
2023/11/06 06:40:38;;;;;;;8.68;1.85;;;17.20;96.70;;;;;;4926939;29;20048;-78
2023/11/06 06:43:06;;;;;;;12.15;2.40;;;17.20;96.70;;;;;;4892929;29;20047;-79
2023/11/06 06:45:35;;;;;;;12.10;2.30;;;17.10;96.70;;;;;;4909874;29;20036;-78
2023/11/06 06:48:03;;;;;;;10.02;2.75;;;17.10;96.70;;;;;;4926523;29;20043;-79
2023/11/06 06:50:30;;;;;;;10.90;2.35;;;17.10;96.70;;;;;;4909545;29;20075;-78
2023/11/06 06:52:58;;;;;;;10.63;2.17;;;17.10;96.70;;;;;;4909030;29;20126;-78
2023/11/06 06:55:26;;;;;;;9.77;2.25;;;17.00;96.70;;;;;;4912719;29;20052;-78
2023/11/06 06:57:59;;;;;;;13.90;2.28;;;17.00;96.70;;;;;;4916811;29;20089;-79
2023/11/06 07:00:27;;;;;;;11.02;2.03;;;17.00;96.70;;;;;;4910385;29;20047;-78
2023/11/06 07:02:55;;;;;;;12.18;2.10;;;17.00;96.70;;;;;;4893746;29;20040;-78
2023/11/06 07:05:23;;;;;;;13.13;2.20;;;17.00;96.70;;;;;;4916536;29;20048;-77
2023/11/06 07:07:52;;;;;;;14.30;2.67;;;17.00;96.70;;;;;;4908150;29;20064;-79
2023/11/06 07:10:20;;;;;;;13.63;2.47;;;17.00;96.70;;;;;;4921108;29;20138;-78
2023/11/06 07:12:47;;;;;;;11.00;2.50;;;17.00;96.70;;;;;;4930154;29;20051;-78
2023/11/06 07:15:17;;;;;;;13.38;2.65;;;17.00;96.70;;;;;;4921257;29;20618;-80
2023/11/06 07:17:45;;;;;;;12.30;2.45;;;17.00;96.70;;;;;;4905443;29;20174;-80
2023/11/06 07:20:15;;;;;;;17.02;3.03;;;17.00;96.70;;;;;;4919957;29;20051;-78
2023/11/06 07:22:43;;;;;;;16.77;3.15;;;17.10;96.70;;;;;;4911551;29;20054;-79
2023/11/06 07:25:11;;;;;;;18.63;2.88;;;17.10;96.70;;;;;;4921507;29;20054;-79
2023/11/06 07:27:40;;;;;;;12.70;2.63;;;17.20;96.70;;;;;;4904075;29;20525;-79
2023/11/06 07:30:09;;;;;;;13.38;3.58;;;17.30;96.70;;;;;;4921315;29;20043;-78
2023/11/06 07:32:39;;;;;;;17.13;3.80;;;17.40;96.70;;;;;;4893989;29;20127;-78
2023/11/06 07:35:09;;;;;;;21.67;4.15;;;17.60;96.70;;;;;;4910297;29;20123;-78
2023/11/06 07:37:37;;;;;;;18.10;3.58;;;17.70;96.70;;;;;;4902627;29;20804;-78
2023/11/06 07:40:08;;;;;;;11.88;3.35;;;17.90;96.70;;;;;;4914100;29;20048;-80
2023/11/06 07:42:36;;;;;;;15.73;3.35;;;18.00;96.70;;;;;;4893639;29;20093;-78
2023/11/06 07:45:05;;;;;;;16.55;3.00;;;18.20;96.70;;;;;;4904572;29;20067;-79
2023/11/06 07:47:33;;;;;;;16.80;2.65;;;18.40;96.70;;;;;;4909221;29;20052;-78
2023/11/06 07:50:03;;;;;;;15.05;2.53;;;18.50;96.70;;;;;;4903818;29;20911;-80
2023/11/06 07:52:31;;;;;;;9.52;1.35;;;18.60;96.70;;;;;;4910886;29;20052;-78
2023/11/06 07:54:59;;;;;;;11.40;2.00;;;18.70;96.70;;;;;;4913927;29;20040;-79
2023/11/06 07:57:27;;;;;;;10.23;1.95;;;18.80;96.70;;;;;;4935669;29;20101;-79
2023/11/06 07:59:57;;;;;;;8.77;2.35;;;18.90;96.70;;;;;;4916243;29;20048;-77
2023/11/06 08:02:25;;;;;;;10.32;2.03;;;19.00;96.70;;;;;;4911189;29;20060;-79
2023/11/06 08:04:53;;;;;;;13.57;2.40;;;19.00;96.70;;;;;;4896068;29;20079;-78
2023/11/06 08:07:22;;;;;;;14.93;2.10;;;19.10;96.70;;;;;;4896605;29;20052;-79
2023/11/06 08:09:51;;;;;;;9.70;2.28;;;19.10;96.70;;;;;;4927888;29;20047;-78
2023/11/06 08:12:19;;;;;;;10.50;2.17;;;19.00;96.70;;;;;;4912834;29;20755;-78
2023/11/06 08:14:47;;;;;;;9.90;2.35;;;19.10;96.70;;;;;;4926565;29;20131;-79
2023/11/06 08:17:16;;;;;;;11.32;1.73;;;19.10;96.70;;;;;;4917827;29;20052;-79
2023/11/06 08:19:44;;;;;;;9.95;2.22;;;19.10;96.70;;;;;;4915733;29;20500;-88
2023/11/06 08:22:12;;;;;;;10.40;1.73;;;19.10;96.70;;;;;;4932932;29;20043;-87
2023/11/06 08:24:41;;;;;;;12.85;1.83;;;19.10;96.70;;;;;;4916027;29;20043;-86
2023/11/06 08:27:09;;;;;;;14.70;7.15;;;19.10;96.70;;;;;;4915872;29;20059;-86
2023/11/06 08:29:42;;;;;;;13.65;3.05;;;19.10;96.70;;;;;;4916147;29;20607;-86
2023/11/06 08:32:11;;;;;;;12.90;2.70;;;19.10;96.70;;;;;;4900335;29;20062;-86
2023/11/06 08:34:40;;;;;;;11.40;2.83;;;19.20;96.70;;;;;;4915452;29;20039;-84
2023/11/06 08:37:12;;;;;;;11.13;3.55;;;19.40;96.70;;;;;;4915747;29;20048;-86
2023/11/06 08:39:49;;;;;;;10.45;2.83;;;19.50;96.70;;;;;;4940536;29;20097;-86
2023/11/06 08:42:18;;;;;;;11.25;3.85;;;19.60;96.70;;;;;;4927759;29;20052;-86
2023/11/06 08:44:46;;;;;;;7.00;2.08;;;19.70;96.70;;;;;;4927939;29;20048;-86
2023/11/06 08:47:19;;;;;;;10.38;4.20;;;19.80;96.70;;;;;;4915968;29;20047;-85
2023/11/06 08:49:47;;;;;;;10.30;4.05;;;19.90;96.70;;;;;;4896930;29;20502;-85
2023/11/06 08:52:15;;;;;;;13.60;3.40;;;20.00;96.70;;;;;;4932350;29;20039;-85
2023/11/06 08:54:45;;;;;;;12.23;2.80;;;20.00;96.70;;;;;;4898734;29;20060;-85
2023/11/06 08:57:14;;;;;;;8.65;1.92;;;20.10;96.70;;;;;;4902861;29;20093;-85
2023/11/06 08:59:42;;;;;;;10.57;1.92;;;20.20;96.70;;;;;;4931462;29;20497;-86
2023/11/06 09:02:10;;;;;;;9.43;2.35;;;20.30;96.70;;;;;;4933960;29;20787;-85
2023/11/06 09:04:40;;;;;;;13.68;2.03;;;20.30;96.70;;;;;;4914361;29;20051;-85
2023/11/06 09:07:10;;;;;;;8.02;1.63;;;20.30;96.70;;;;;;4899011;29;20211;-84
2023/11/06 09:09:40;;;;;;;7.80;1.85;;;20.30;96.70;;;;;;4932062;29;20091;-85
2023/11/06 09:12:10;;;;;;;11.65;1.95;;;20.20;96.70;;;;;;4913326;29;20510;-84
2023/11/06 09:14:39;;;;;;;8.25;1.90;;;20.20;96.70;;;;;;4913005;29;20039;-83
2023/11/06 09:17:07;;;;;;;10.10;1.65;;;20.20;96.70;;;;;;4928963;29;20051;-82
2023/11/06 09:19:35;;;;;;;10.57;1.42;;;20.10;96.70;;;;;;4930075;29;20090;-84
2023/11/06 09:22:03;;;;;;;10.00;1.75;;;20.10;96.70;;;;;;4897006;29;20051;-83
2023/11/06 09:24:31;;;;;;;7.50;2.38;;;20.10;96.70;;;;;;4912908;29;20043;-84
2023/11/06 09:26:59;;;;;;;9.55;2.17;;;20.10;96.70;;;;;;4896297;29;20054;-83
2023/11/06 09:29:28;;;;;;;10.48;1.40;;;20.10;96.70;;;;;;4929616;29;20028;-83
2023/11/06 09:31:56;;;;;;;9.55;2.13;;;20.00;96.70;;;;;;4912514;29;20051;-83
2023/11/06 09:34:24;;;;;;;5.90;1.45;;;20.10;96.70;;;;;;4914353;29;20051;-83
2023/11/06 09:36:52;;;;;;;10.73;2.20;;;20.10;96.70;;;;;;4916309;29;20122;-84
2023/11/06 09:39:21;;;;;;;8.27;1.75;;;20.20;96.70;;;;;;4931554;29;20058;-82
2023/11/06 09:41:50;;;;;;;8.32;1.30;;;20.20;96.70;;;;;;4901897;29;20051;-81
2023/11/06 09:44:18;;;;;;;9.40;1.92;;;20.30;96.70;;;;;;4912066;29;20055;-88
2023/11/06 09:46:49;;;;;;;7.80;1.75;;;20.40;96.70;;;;;;4940094;29;20054;-87
2023/11/06 09:49:26;;;;;;;8.02;1.58;;;20.40;96.70;;;;;;4930871;29;20047;-87
2023/11/06 09:51:55;;;;;;;10.60;5.55;;;20.50;96.70;;;;;;4898306;29;20051;-85
2023/11/06 09:54:24;;;;;;;6.22;1.35;;;20.50;96.70;;;;;;4898730;29;20106;-88
2023/11/06 09:56:53;;;;;;;5.85;0.93;;;20.60;96.70;;;;;;4913250;29;20056;-87
2023/11/06 09:59:22;;;;;;;4.97;0.85;;;20.70;96.70;;;;;;4914651;29;20744;-87
2023/11/06 10:01:53;;;;;;;5.10;1.00;;;20.70;96.70;;;;;;4906964;29;20071;-83
2023/11/06 10:04:22;;;;;;;6.35;1.00;;;20.70;96.70;;;;;;4897663;29;20054;-82
2023/11/06 10:06:50;;;;;;;7.72;3.25;;;20.60;96.70;;;;;;4926481;29;20047;-83
2023/11/06 10:09:22;;;;;;;12.32;7.07;;;20.50;96.70;;;;;;4912027;29;20902;-84
2023/11/06 10:11:51;;;;;;;5.63;0.98;;;20.60;96.70;;;;;;4930114;29;20048;-82
2023/11/06 10:14:19;;;;;;;7.53;0.95;;;20.70;96.70;;;;;;4897651;29;20138;-84
2023/11/06 10:16:47;;;;;;;5.00;1.20;;;20.80;96.70;;;;;;4930816;29;20525;-85
2023/11/06 10:19:22;;;;;;;4.88;1.35;;;20.80;96.70;;;;;;4930549;29;20042;-83
2023/11/06 10:21:50;;;;;;;6.35;2.28;;;20.90;96.70;;;;;;4895326;29;20174;-82
2023/11/06 10:24:18;;;;;;;5.68;1.35;;;20.90;96.70;;;;;;4931519;29;20043;-82
2023/11/06 10:26:46;;;;;;;9.02;1.65;;;21.00;96.70;;;;;;4934354;29;20047;-83
2023/11/06 10:29:15;;;;;;;4.68;1.00;;;20.90;96.70;;;;;;4910012;29;20044;-84
2023/11/06 10:31:44;;;;;;;8.43;1.08;;;21.00;96.70;;;;;;4928532;29;20044;-82
2023/11/06 10:34:26;;;;;;;5.25;1.00;;;21.00;96.70;;;;;;4912297;29;20055;-83
2023/11/06 10:37:07;;;;;;;6.50;1.20;;;21.00;96.70;;;;;;4906791;29;20055;-83
2023/11/06 10:39:35;;;;;;;7.88;1.17;;;21.10;96.70;;;;;;4911801;29;20063;-84
2023/11/06 10:42:05;;;;;;;4.18;0.93;;;21.10;96.70;;;;;;4911861;29;20040;-81
2023/11/06 10:44:34;;;;;;;3.17;0.80;;;21.10;96.70;;;;;;4911656;29;20090;-82
2023/11/06 10:47:06;;;;;;;2.17;0.70;;;21.00;96.70;;;;;;4911777;29;20052;-82
2023/11/06 10:49:42;;;;;;;3.03;0.50;;;21.00;96.70;;;;;;4910854;29;20138;-82
2023/11/06 10:52:10;;;;;;;2.67;0.45;;;20.80;96.70;;;;;;4936593;29;20527;-82
2023/11/06 10:54:40;;;;;;;2.83;0.30;;;20.70;96.70;;;;;;4892621;29;20162;-82
2023/11/06 10:57:12;;;;;;;4.10;0.43;;;20.90;96.70;;;;;;4927566;29;20055;-81
2023/11/06 10:59:41;;;;;;;3.65;0.40;;;21.10;96.70;;;;;;4911757;29;20442;-81
2023/11/06 11:02:18;;;;;;;1.52;0.47;;;20.90;96.70;;;;;;4902399;29;20134;-84
2023/11/06 11:04:51;;;;;;;2.92;0.50;;;20.70;96.70;;;;;;4896091;29;20111;-82
2023/11/06 11:07:20;;;;;;;5.38;0.85;;;20.70;96.70;;;;;;4904218;29;21173;-82
2023/11/06 11:09:50;;;;;;;3.22;0.50;;;20.80;96.70;;;;;;4910986;29;20051;-80
2023/11/06 11:12:20;;;;;;;3.60;0.50;;;20.80;96.70;;;;;;4889391;29;20056;-82
2023/11/06 11:14:49;;;;;;;2.17;0.32;;;20.90;96.70;;;;;;4894104;29;20143;-81
2023/11/06 11:17:17;;;;;;;2.78;0.40;;;20.90;96.70;;;;;;4911482;29;20971;-82
2023/11/06 11:19:56;;;;;;;2.15;0.50;;;21.00;96.70;;;;;;4911495;29;20044;-85
2023/11/06 11:22:24;;;;;;;2.65;0.30;;;21.20;96.70;;;;;;4915888;29;20578;-82
2023/11/06 11:24:55;;;;;;;2.67;0.40;;;21.30;96.70;;;;;;4914453;29;20499;-82
2023/11/06 11:27:25;;;;;;;2.92;0.38;;;21.40;96.70;;;;;;4910706;29;20054;-82
2023/11/06 11:30:05;;;;;;;2.10;0.45;;;21.60;96.70;;;;;;4892431;29;20051;-82
2023/11/06 11:32:52;;;;;;;1.92;0.43;;;21.60;96.70;;;;;;4919381;29;20052;-83
2023/11/06 11:35:52;;;;;;;1.92;0.40;;;21.70;96.70;;;;;;4919244;29;20052;-81
2023/11/06 11:38:22;;;;;;;2.10;0.43;;;21.70;96.70;;;;;;4853503;29;20151;-89
2023/11/06 11:41:12;;;;;;;3.30;0.40;;;21.80;96.70;;;;;;4916838;29;20055;-86
2023/11/06 11:43:41;;;;;;;4.85;0.50;;;21.90;96.70;;;;;;4906567;29;20091;-89
2023/11/06 11:46:46;;;;;;;2.70;0.40;;;21.90;96.70;;;;;;4913774;29;20095;-87
2023/11/06 11:49:43;;;;;;;3.10;0.40;;;21.90;96.70;;;;;;4923143;29;20044;-87
2023/11/06 11:52:14;;;;;;;3.28;0.40;;;21.90;96.70;;;;;;4913202;29;20052;-87
2023/11/06 11:54:42;;;;;;;2.35;0.40;;;21.90;96.70;;;;;;4914797;29;20059;-87
2023/11/06 11:57:11;;;;;;;3.83;0.38;;;21.90;96.70;;;;;;4897850;29;20799;-86
2023/11/06 11:59:44;;;;;;;2.63;0.45;;;21.80;96.70;;;;;;4915201;29;20044;-87
2023/11/06 12:02:26;;;;;;;2.33;0.38;;;21.80;96.70;;;;;;4913935;29;20060;-87
2023/11/06 12:05:00;;;;;;;2.95;0.40;;;21.80;96.70;;;;;;4914856;29;20055;-86
2023/11/06 12:07:39;;;;;;;2.40;0.60;;;21.80;96.70;;;;;;4915207;29;20122;-87
2023/11/06 12:10:07;;;;;;;3.13;0.57;;;21.70;96.70;;;;;;4913487;29;20287;-87
2023/11/06 12:12:35;;;;;;;4.05;0.60;;;21.60;96.70;;;;;;4913845;29;20044;-87
2023/11/06 12:15:10;;;;;;;4.13;0.77;;;21.70;96.70;;;;;;4913586;29;20058;-87
2023/11/06 12:17:39;;;;;;;5.70;0.43;;;21.70;96.70;;;;;;4890881;29;20060;-86
2023/11/06 12:20:09;;;;;;;3.38;0.60;;;21.70;96.70;;;;;;4915162;29;20048;-86
2023/11/06 12:22:49;;;;;;;2.78;0.50;;;21.70;96.70;;;;;;4913529;29;20164;-87
2023/11/06 12:25:27;;;;;;;2.25;0.30;;;21.90;96.70;;;;;;4913373;29;20055;-87
2023/11/06 12:28:03;;;;;;;2.35;0.52;;;21.90;96.70;;;;;;4922974;29;20753;-86
2023/11/06 12:30:31;;;;;;;1.90;0.57;;;21.80;96.70;;;;;;4897833;29;20139;-88
2023/11/06 12:33:10;;;;;;;2.22;0.50;;;21.90;96.70;;;;;;4913250;29;20107;-88
2023/11/06 12:35:38;;;;;;;3.33;0.45;;;21.80;96.70;;;;;;4897793;29;20711;-86
2023/11/06 12:38:07;;;;;;;2.28;0.55;;;21.70;96.70;;;;;;4912853;29;20044;-87
2023/11/06 12:40:42;;;;;;;1.90;0.40;;;21.70;96.70;;;;;;4917436;29;20044;-89
2023/11/06 12:43:13;;;;;;;2.25;0.43;;;21.50;96.70;;;;;;4917408;29;20094;-88
2023/11/06 12:45:42;;;;;;;1.23;0.45;;;21.30;96.70;;;;;;4914191;29;20056;-87
2023/11/06 12:48:23;;;;;;;3.45;0.50;;;21.40;96.70;;;;;;4921366;29;20076;-87
2023/11/06 12:51:00;;;;;;;1.58;0.30;;;21.50;96.70;;;;;;4912933;29;20052;-87
2023/11/06 12:53:30;;;;;;;3.72;0.55;;;21.50;96.70;;;;;;4912717;29;20052;-88